Time;durP1;ratioP1;P1;durP2;ratioP2;P2;SDS_P1;SDS_P2;PMS_P1;PMS_P2;Temp;Humidity;BMP_temperature;BMP_pressure;BME280_temperature;BME280_humidity;BME280_pressure;Samples;Min_cycle;Max_cycle;Signal;HPM_P1;HPM_P2
2022/07/03 00:01:12;;;;;;;0.15;0.15;;;20.40;99.90;;;;;;4955229;29;20031;-70
2022/07/03 00:03:38;;;;;;;1.30;0.80;;;20.40;99.90;;;;;;4953339;28;20035;-68
2022/07/03 00:06:04;;;;;;;1.92;0.38;;;20.40;99.90;;;;;;4955081;29;20723;-68
2022/07/03 00:08:30;;;;;;;0.57;0.55;;;20.40;99.90;;;;;;4953972;28;20039;-69
2022/07/03 00:10:56;;;;;;;0.98;0.73;;;20.20;99.90;;;;;;4938082;29;20058;-69
2022/07/03 00:13:22;;;;;;;0.55;0.55;;;20.30;99.90;;;;;;4953542;28;20467;-69
2022/07/03 00:15:48;;;;;;;8.77;0.80;;;20.30;99.90;;;;;;4955097;28;20031;-69
2022/07/03 00:18:13;;;;;;;1.95;1.00;;;20.30;99.90;;;;;;4953472;28;20027;-69
2022/07/03 00:20:48;;;;;;;0.20;0.20;;;20.40;99.90;;;;;;4954980;29;20110;-69
2022/07/03 00:23:18;;;;;;;0.52;0.52;;;20.40;99.90;;;;;;4954095;28;20027;-69
2022/07/03 00:25:44;;;;;;;0.82;0.82;;;20.30;99.90;;;;;;4954942;28;20027;-69
2022/07/03 00:28:10;;;;;;;0.00;0.00;;;20.50;99.90;;;;;;4953784;28;20562;-69
2022/07/03 00:30:37;;;;;;;2.97;1.17;;;20.50;99.90;;;;;;4954827;28;20035;-69
2022/07/03 00:33:04;;;;;;;0.32;0.30;;;20.50;99.90;;;;;;4952727;28;20174;-68
2022/07/03 00:35:37;;;;;;;0.95;0.55;;;20.70;99.90;;;;;;4953818;29;20027;-68
2022/07/03 00:38:03;;;;;;;4.05;3.67;;;20.70;99.90;;;;;;4953562;28;20388;-69
2022/07/03 00:40:30;;;;;;;3.15;2.35;;;20.70;99.90;;;;;;4953330;29;20035;-68
2022/07/03 00:42:59;;;;;;;0.38;0.30;;;20.60;99.90;;;;;;4954100;28;20027;-68
2022/07/03 00:45:26;;;;;;;0.20;0.20;;;20.70;99.90;;;;;;4953011;29;20106;-69
2022/07/03 00:47:54;;;;;;;13.23;2.00;;;20.70;99.90;;;;;;4952919;28;20031;-68
2022/07/03 00:50:25;;;;;;;0.82;0.45;;;20.70;99.90;;;;;;4954493;28;20032;-68
2022/07/03 00:52:54;;;;;;;0.40;0.38;;;20.60;99.90;;;;;;4952676;29;20062;-69
2022/07/03 00:55:26;;;;;;;0.00;0.00;;;20.50;99.90;;;;;;4953018;28;20118;-69
2022/07/03 00:57:56;;;;;;;0.20;0.20;;;20.20;99.90;;;;;;4953131;28;20031;-69
2022/07/03 01:00:23;;;;;;;1.45;0.85;;;20.00;99.90;;;;;;4954451;28;20062;-68
2022/07/03 01:02:55;;;;;;;0.30;0.20;;;20.00;99.90;;;;;;4952601;28;20090;-68
2022/07/03 01:05:42;;;;;;;0.10;0.10;;;19.90;99.90;;;;;;4952881;28;20027;-68
2022/07/03 01:08:35;;;;;;;0.00;0.00;;;19.90;99.90;;;;;;4957229;28;20058;-69
2022/07/03 01:11:21;;;;;;;2.00;0.43;;;19.70;99.90;;;;;;4953564;28;20109;-68
2022/07/03 01:14:30;;;;;;;1.75;0.50;;;19.70;99.90;;;;;;4953615;29;20039;-68
2022/07/03 01:17:04;;;;;;;1.77;0.43;;;19.60;99.90;;;;;;4972226;28;20110;-69
2022/07/03 01:19:42;;;;;;;0.50;0.43;;;19.50;99.90;;;;;;4971851;28;20070;-68
2022/07/03 01:22:32;;;;;;;0.52;0.52;;;19.40;99.90;;;;;;4972950;28;20066;-69
2022/07/03 01:25:35;;;;;;;0.20;0.10;;;19.40;99.90;;;;;;4958634;28;20496;-68
2022/07/03 01:28:01;;;;;;;0.35;0.35;;;19.30;99.90;;;;;;4953477;29;20046;-68
2022/07/03 01:30:40;;;;;;;0.30;0.30;;;19.30;99.90;;;;;;4953763;28;20039;-68
2022/07/03 01:33:15;;;;;;;0.00;0.00;;;19.20;99.90;;;;;;4968258;28;20053;-69
2022/07/03 01:35:57;;;;;;;0.52;0.52;;;19.20;99.90;;;;;;4967096;28;20091;-69
2022/07/03 01:38:26;;;;;;;0.55;0.55;;;19.30;99.90;;;;;;4953304;28;20059;-69
2022/07/03 01:40:54;;;;;;;0.32;0.13;;;19.30;99.90;;;;;;4958743;28;20034;-68
2022/07/03 01:43:36;;;;;;;0.00;0.00;;;19.30;99.90;;;;;;4971135;28;20694;-68
2022/07/03 01:46:03;;;;;;;0.10;0.10;;;19.30;99.90;;;;;;4972675;28;20546;-68
2022/07/03 01:48:32;;;;;;;0.17;0.17;;;19.40;99.90;;;;;;4971492;28;20689;-69
2022/07/03 01:51:00;;;;;;;1.10;0.60;;;19.40;99.90;;;;;;4971443;28;20034;-68
2022/07/03 01:53:30;;;;;;;0.82;0.45;;;19.30;99.90;;;;;;4972275;28;20042;-69
2022/07/03 01:56:00;;;;;;;0.00;0.00;;;19.30;99.90;;;;;;4971442;28;20133;-69
2022/07/03 01:58:26;;;;;;;0.10;0.10;;;19.20;99.90;;;;;;4972254;28;20030;-68
2022/07/03 02:01:14;;;;;;;0.05;0.05;;;19.20;99.90;;;;;;4972488;28;20031;-69
2022/07/03 02:03:51;;;;;;;0.10;0.10;;;19.30;99.90;;;;;;4971176;28;20030;-68
2022/07/03 02:06:43;;;;;;;0.22;0.22;;;19.20;99.90;;;;;;4971205;28;20031;-69
2022/07/03 02:09:12;;;;;;;0.00;0.00;;;19.30;99.90;;;;;;4972585;28;20031;-69
2022/07/03 02:11:43;;;;;;;1.85;1.00;;;19.30;99.90;;;;;;4971296;28;20038;-68
2022/07/03 02:14:25;;;;;;;0.17;0.17;;;19.30;99.90;;;;;;4972125;28;20046;-68
2022/07/03 02:17:04;;;;;;;0.05;0.05;;;19.30;99.90;;;;;;4934179;29;20036;-69
2022/07/03 02:20:01;;;;;;;0.75;0.15;;;19.10;99.90;;;;;;4932773;29;20040;-68
2022/07/03 02:22:51;;;;;;;0.65;0.17;;;19.20;99.90;;;;;;4948020;29;20523;-69
2022/07/03 02:25:23;;;;;;;0.10;0.10;;;19.20;99.90;;;;;;4933959;29;20036;-67
2022/07/03 02:28:02;;;;;;;0.00;0.00;;;19.20;99.90;;;;;;4933745;29;20024;-68
2022/07/03 02:30:29;;;;;;;1.17;0.63;;;19.10;99.90;;;;;;4934005;29;20028;-68
2022/07/03 02:32:59;;;;;;;0.00;0.00;;;19.00;99.90;;;;;;4932379;29;20086;-69
2022/07/03 02:35:33;;;;;;;0.38;0.20;;;19.20;99.90;;;;;;4933909;29;20070;-68
2022/07/03 02:38:16;;;;;;;0.38;0.38;;;19.30;99.90;;;;;;4947899;28;20788;-69
2022/07/03 02:41:20;;;;;;;0.00;0.00;;;19.20;99.90;;;;;;4948457;29;20027;-68
2022/07/03 02:44:02;;;;;;;0.00;0.00;;;19.20;99.90;;;;;;4933534;29;20032;-68
2022/07/03 02:47:00;;;;;;;0.20;0.20;;;19.20;99.90;;;;;;4949202;28;20042;-67
2022/07/03 02:49:48;;;;;;;0.52;0.20;;;19.20;99.90;;;;;;4936084;29;20432;-68
2022/07/03 02:52:53;;;;;;;0.43;0.43;;;19.20;99.90;;;;;;4951326;29;20043;-69
2022/07/03 02:55:43;;;;;;;0.00;0.00;;;19.30;99.90;;;;;;4936225;29;20667;-68
2022/07/03 02:58:09;;;;;;;0.00;0.00;;;19.20;99.90;;;;;;4936949;29;20395;-68
2022/07/03 03:00:38;;;;;;;0.00;0.00;;;19.10;99.90;;;;;;4937638;29;20042;-68
2022/07/03 03:03:04;;;;;;;2.75;0.98;;;19.10;99.90;;;;;;4936698;29;20042;-68
2022/07/03 03:05:53;;;;;;;0.08;0.08;;;19.10;99.90;;;;;;4937256;29;20039;-68
2022/07/03 03:08:41;;;;;;;0.00;0.00;;;19.10;99.90;;;;;;4936113;29;20047;-68
2022/07/03 03:11:17;;;;;;;0.00;0.00;;;18.90;99.90;;;;;;4937078;29;20451;-68
2022/07/03 03:13:50;;;;;;;0.20;0.17;;;18.80;99.90;;;;;;4950858;29;20066;-69
2022/07/03 03:16:16;;;;;;;0.20;0.15;;;18.80;99.90;;;;;;4982276;28;20027;-68
2022/07/03 03:18:42;;;;;;;0.00;0.00;;;18.70;99.90;;;;;;4975004;28;20396;-68
2022/07/03 03:21:16;;;;;;;0.28;0.28;;;18.70;99.90;;;;;;4974438;28;20541;-68
2022/07/03 03:23:51;;;;;;;0.55;0.40;;;18.70;99.90;;;;;;4958109;28;20038;-68
2022/07/03 03:26:20;;;;;;;0.00;0.00;;;18.60;99.90;;;;;;4974276;28;20026;-69
2022/07/03 03:28:46;;;;;;;0.17;0.17;;;18.60;99.90;;;;;;4975115;28;20035;-68
2022/07/03 03:31:13;;;;;;;0.00;0.00;;;18.60;99.90;;;;;;4975125;28;20541;-68
2022/07/03 03:33:45;;;;;;;0.08;0.08;;;18.50;99.90;;;;;;4974575;28;20030;-68
2022/07/03 03:36:14;;;;;;;0.32;0.32;;;18.50;99.90;;;;;;4973628;28;20031;-68
2022/07/03 03:38:41;;;;;;;1.75;0.70;;;18.60;99.90;;;;;;4973647;28;20031;-68
2022/07/03 03:41:07;;;;;;;1.65;0.85;;;18.70;99.90;;;;;;4973945;28;20411;-68
2022/07/03 03:43:34;;;;;;;0.10;0.10;;;18.70;99.90;;;;;;4973301;28;20042;-69
2022/07/03 03:46:01;;;;;;;0.00;0.00;;;18.70;99.90;;;;;;4973794;28;20613;-68
2022/07/03 03:48:29;;;;;;;0.38;0.32;;;18.70;99.90;;;;;;4974679;28;20031;-68
2022/07/03 03:50:56;;;;;;;0.00;0.00;;;18.60;99.90;;;;;;4973311;28;20031;-68
2022/07/03 03:53:25;;;;;;;0.00;0.00;;;18.50;99.90;;;;;;4973237;28;20069;-68
2022/07/03 03:56:09;;;;;;;0.15;0.15;;;18.40;99.90;;;;;;4957499;28;20114;-68
2022/07/03 03:58:40;;;;;;;0.05;0.05;;;18.20;99.90;;;;;;4981320;23;20051;-63
2022/07/03 04:01:09;;;;;;;0.00;0.00;;;18.20;99.90;;;;;;4973829;28;20027;-63
2022/07/03 04:03:36;;;;;;;0.20;0.20;;;18.10;99.90;;;;;;4954680;29;20039;-63
2022/07/03 04:06:02;;;;;;;0.00;0.00;;;18.10;99.90;;;;;;4955097;29;20217;-63
2022/07/03 04:08:29;;;;;;;0.30;0.30;;;18.00;99.90;;;;;;4954960;28;20031;-63
2022/07/03 04:10:56;;;;;;;0.30;0.30;;;17.90;99.90;;;;;;4970094;28;20027;-63
2022/07/03 04:13:22;;;;;;;0.20;0.10;;;17.90;99.90;;;;;;4969272;28;20027;-63
2022/07/03 04:15:51;;;;;;;0.70;0.52;;;17.90;99.90;;;;;;4954929;29;20019;-63
2022/07/03 04:18:17;;;;;;;0.05;0.05;;;17.90;99.90;;;;;;4954639;28;20482;-63
2022/07/03 04:20:43;;;;;;;0.50;0.50;;;17.80;99.90;;;;;;4953457;28;20031;-63
2022/07/03 04:23:09;;;;;;;0.00;0.00;;;17.80;99.90;;;;;;4969172;28;20098;-63
2022/07/03 04:25:35;;;;;;;0.00;0.00;;;17.80;99.90;;;;;;4954624;29;20431;-63
2022/07/03 04:28:01;;;;;;;0.00;0.00;;;17.80;99.90;;;;;;4954572;28;20039;-63
2022/07/03 04:30:27;;;;;;;0.30;0.20;;;17.80;99.90;;;;;;4953347;29;20046;-63
2022/07/03 04:32:53;;;;;;;0.00;0.00;;;17.90;99.90;;;;;;4954133;29;20391;-64
2022/07/03 04:35:19;;;;;;;0.05;0.05;;;18.00;99.90;;;;;;4954571;29;20491;-63
2022/07/03 04:37:45;;;;;;;0.10;0.10;;;18.00;99.90;;;;;;4953386;29;20077;-63
2022/07/03 04:40:13;;;;;;;0.00;0.00;;;18.00;99.90;;;;;;4953493;29;20031;-63
2022/07/03 04:42:39;;;;;;;0.00;0.00;;;18.10;99.90;;;;;;4954174;29;20042;-63
2022/07/03 04:45:06;;;;;;;0.10;0.10;;;18.20;99.90;;;;;;4954276;29;20035;-63
2022/07/03 04:47:31;;;;;;;0.00;0.00;;;18.20;99.90;;;;;;4954186;28;20387;-63
2022/07/03 04:49:57;;;;;;;0.45;0.25;;;18.30;99.90;;;;;;4969254;28;20045;-63
2022/07/03 04:52:23;;;;;;;0.82;0.40;;;18.40;99.90;;;;;;4953776;29;20090;-63
2022/07/03 04:54:49;;;;;;;0.90;0.57;;;18.50;99.90;;;;;;4954372;29;20031;-63
2022/07/03 04:57:14;;;;;;;0.98;0.98;;;18.60;99.90;;;;;;4952887;28;20118;-64
2022/07/03 04:59:40;;;;;;;3.03;0.82;;;18.70;99.90;;;;;;4952773;29;20034;-64
2022/07/03 05:02:07;;;;;;;0.00;0.00;;;18.70;99.90;;;;;;4952693;29;20082;-63
2022/07/03 05:04:33;;;;;;;1.85;0.80;;;18.80;99.90;;;;;;4952789;29;20055;-63
2022/07/03 05:06:59;;;;;;;0.00;0.00;;;18.90;99.90;;;;;;4954306;28;20106;-63
2022/07/03 05:09:25;;;;;;;0.00;0.00;;;19.00;99.90;;;;;;4953655;28;20039;-63
2022/07/03 05:11:51;;;;;;;0.00;0.00;;;19.00;99.90;;;;;;4951981;29;20427;-63
2022/07/03 05:14:17;;;;;;;0.00;0.00;;;19.00;99.90;;;;;;4952004;29;20042;-63
2022/07/03 05:16:43;;;;;;;0.00;0.00;;;19.10;99.90;;;;;;4935146;28;20028;-63
2022/07/03 05:19:08;;;;;;;0.10;0.10;;;19.10;99.90;;;;;;4934696;29;20034;-64
2022/07/03 05:21:34;;;;;;;0.00;0.00;;;19.10;99.90;;;;;;4934489;29;20038;-64
2022/07/03 05:24:00;;;;;;;0.00;0.00;;;19.20;99.90;;;;;;4908729;28;20139;-64
2022/07/03 05:26:25;;;;;;;1.08;0.65;;;19.20;99.90;;;;;;4951996;28;20126;-63
2022/07/03 05:28:51;;;;;;;0.30;0.10;;;19.20;99.90;;;;;;4942596;28;20074;-62
2022/07/03 05:31:17;;;;;;;0.00;0.00;;;19.20;99.90;;;;;;4940759;28;20101;-62
2022/07/03 05:33:43;;;;;;;0.50;0.43;;;19.20;99.90;;;;;;4941221;29;20039;-67
2022/07/03 05:36:08;;;;;;;0.00;0.00;;;19.20;99.90;;;;;;4934823;29;20031;-71
2022/07/03 05:41:18;;;;;;;0.13;0.08;;;19.20;99.90;;;;;;4939343;29;20135;-72
2022/07/03 05:43:44;;;;;;;0.10;0.10;;;19.20;99.90;;;;;;4941415;29;20102;-72
2022/07/03 05:46:10;;;;;;;0.00;0.00;;;19.30;99.90;;;;;;4937736;29;20058;-73
2022/07/03 05:48:36;;;;;;;1.08;0.35;;;19.40;99.90;;;;;;4951943;29;20117;-71
2022/07/03 05:51:02;;;;;;;0.00;0.00;;;19.50;99.90;;;;;;4951846;29;20043;-72
2022/07/03 05:53:28;;;;;;;0.75;0.55;;;19.60;99.90;;;;;;4953138;29;20424;-72
2022/07/03 05:55:54;;;;;;;0.08;0.08;;;19.70;99.90;;;;;;4951708;29;20031;-72
2022/07/03 05:58:20;;;;;;;0.00;0.00;;;19.70;99.90;;;;;;4951644;29;20049;-74
2022/07/03 06:00:46;;;;;;;0.00;0.00;;;19.90;99.90;;;;;;4949776;28;20057;-73
2022/07/03 06:03:12;;;;;;;1.85;1.15;;;20.00;99.90;;;;;;4931594;29;20031;-74
2022/07/03 06:05:38;;;;;;;0.00;0.00;;;20.10;99.90;;;;;;4932591;29;20035;-75
2022/07/03 06:08:05;;;;;;;0.00;0.00;;;20.20;99.90;;;;;;4933553;29;20100;-75
2022/07/03 06:10:31;;;;;;;0.10;0.10;;;20.30;99.90;;;;;;4948421;29;20110;-77
2022/07/03 06:12:57;;;;;;;0.00;0.00;;;20.30;99.90;;;;;;4947753;29;20170;-75
2022/07/03 06:15:23;;;;;;;0.17;0.10;;;20.30;99.90;;;;;;4933755;29;20554;-75
2022/07/03 06:17:49;;;;;;;0.00;0.00;;;20.50;99.90;;;;;;4942360;28;20100;-77
2022/07/03 06:20:14;;;;;;;0.40;0.30;;;20.50;99.90;;;;;;4943831;29;20479;-74
2022/07/03 06:22:41;;;;;;;0.10;0.10;;;20.60;99.90;;;;;;4944063;28;20035;-75
2022/07/03 06:25:08;;;;;;;0.03;0.03;;;20.70;99.90;;;;;;4962386;28;20456;-75
2022/07/03 06:27:34;;;;;;;0.22;0.20;;;20.80;99.90;;;;;;4963783;28;20036;-75
2022/07/03 06:30:00;;;;;;;1.55;0.55;;;20.80;99.90;;;;;;4947845;29;20542;-75
2022/07/03 06:32:26;;;;;;;0.45;0.43;;;20.70;99.90;;;;;;4945700;29;20032;-76
2022/07/03 06:34:52;;;;;;;0.75;0.40;;;20.90;99.90;;;;;;4945097;28;20031;-74
2022/07/03 06:37:18;;;;;;;0.20;0.20;;;21.00;99.90;;;;;;4940605;29;20107;-75
2022/07/03 06:39:44;;;;;;;0.20;0.20;;;21.20;99.90;;;;;;4937148;29;20135;-73
2022/07/03 06:42:10;;;;;;;0.03;0.03;;;21.20;99.90;;;;;;4951820;29;20032;-74
2022/07/03 06:44:36;;;;;;;0.00;0.00;;;21.30;99.90;;;;;;4951747;29;20035;-74
2022/07/03 06:47:03;;;;;;;0.00;0.00;;;21.40;99.90;;;;;;4937013;29;20032;-75
2022/07/03 06:49:32;;;;;;;0.20;0.20;;;21.50;99.90;;;;;;4937213;29;20027;-74
2022/07/03 06:51:57;;;;;;;0.00;0.00;;;21.50;99.90;;;;;;4951371;29;20035;-74
2022/07/03 06:54:23;;;;;;;0.00;0.00;;;21.50;99.90;;;;;;4937320;29;20042;-73
2022/07/03 06:56:49;;;;;;;2.05;1.00;;;21.60;99.90;;;;;;4951677;28;20032;-73
2022/07/03 06:59:15;;;;;;;0.10;0.10;;;21.70;99.90;;;;;;4936808;29;20044;-73
2022/07/03 07:01:40;;;;;;;0.10;0.10;;;21.60;99.90;;;;;;4936815;29;20029;-71
2022/07/03 07:04:06;;;;;;;0.10;0.10;;;21.70;99.90;;;;;;4936458;29;20031;-71
2022/07/03 07:06:32;;;;;;;0.10;0.10;;;21.90;99.90;;;;;;4936749;29;20491;-72
2022/07/03 07:08:58;;;;;;;0.10;0.10;;;21.80;99.90;;;;;;4951414;28;20046;-72
2022/07/03 07:11:23;;;;;;;0.20;0.13;;;22.00;99.90;;;;;;4951579;29;20059;-72
2022/07/03 07:13:49;;;;;;;0.20;0.20;;;21.90;99.90;;;;;;4936306;29;20028;-72
2022/07/03 07:16:15;;;;;;;0.60;0.35;;;22.10;99.90;;;;;;4936685;29;20042;-73
2022/07/03 07:18:42;;;;;;;0.65;0.20;;;22.00;99.90;;;;;;4923430;28;20241;-73
2022/07/03 07:21:09;;;;;;;0.30;0.30;;;22.00;99.90;;;;;;4940678;29;20040;-73
2022/07/03 07:23:37;;;;;;;0.00;0.00;;;22.10;99.90;;;;;;4936410;29;20396;-70
2022/07/03 07:26:04;;;;;;;0.13;0.13;;;22.10;99.90;;;;;;4936553;29;20024;-71
2022/07/03 07:28:30;;;;;;;0.00;0.00;;;22.20;99.90;;;;;;4935244;29;20062;-76
2022/07/03 07:30:57;;;;;;;0.00;0.00;;;22.20;99.90;;;;;;4951462;29;20059;-79
2022/07/03 07:33:23;;;;;;;0.00;0.00;;;22.30;99.90;;;;;;4935264;29;20121;-72
2022/07/03 07:35:50;;;;;;;0.00;0.00;;;22.40;99.90;;;;;;4950862;28;20044;-72
2022/07/03 07:38:16;;;;;;;0.00;0.00;;;22.60;99.90;;;;;;4949701;29;20020;-71
2022/07/03 07:40:42;;;;;;;0.00;0.00;;;22.70;99.90;;;;;;4951091;29;20023;-70
2022/07/03 07:43:08;;;;;;;0.00;0.00;;;22.70;99.90;;;;;;4936130;29;20515;-71
2022/07/03 07:45:34;;;;;;;0.03;0.03;;;22.70;99.90;;;;;;4936203;29;20045;-71
2022/07/03 07:48:00;;;;;;;0.10;0.10;;;22.80;99.90;;;;;;4936010;29;20032;-70
2022/07/03 07:50:26;;;;;;;0.20;0.20;;;22.90;99.90;;;;;;4934811;29;20035;-71
2022/07/03 07:52:53;;;;;;;0.13;0.10;;;22.90;99.90;;;;;;4934632;29;20535;-70
2022/07/03 07:55:20;;;;;;;0.47;0.30;;;23.00;99.90;;;;;;4935176;29;20031;-71
2022/07/03 07:57:47;;;;;;;0.08;0.08;;;23.10;99.90;;;;;;4935847;29;20660;-71
2022/07/03 08:00:18;;;;;;;0.55;0.20;;;23.20;99.90;;;;;;4934751;29;20031;-72
2022/07/03 08:05:36;;;;;;;0.10;0.10;;;23.40;99.70;;;;;;4935993;29;20439;-71
2022/07/03 08:08:22;;;;;;;0.08;0.03;;;23.40;99.90;;;;;;4935803;29;20031;-70
2022/07/03 08:10:49;;;;;;;0.00;0.00;;;23.30;99.90;;;;;;4935813;29;20044;-71
2022/07/03 08:13:18;;;;;;;0.03;0.03;;;23.50;99.90;;;;;;4935251;29;20032;-69
2022/07/03 08:15:46;;;;;;;0.10;0.10;;;23.60;99.30;;;;;;4935987;29;20031;-70
2022/07/03 08:18:12;;;;;;;0.15;0.10;;;23.70;99.30;;;;;;4934370;29;20476;-70
2022/07/03 08:20:38;;;;;;;0.10;0.10;;;23.80;98.70;;;;;;4950444;29;20027;-72
2022/07/03 08:23:05;;;;;;;0.10;0.08;;;23.70;98.40;;;;;;4935503;29;20066;-70
2022/07/03 08:25:31;;;;;;;0.00;0.00;;;23.70;98.10;;;;;;4950412;28;20054;-71
2022/07/03 08:27:57;;;;;;;0.38;0.25;;;23.90;98.60;;;;;;4950200;29;20031;-70
2022/07/03 08:30:24;;;;;;;0.30;0.25;;;23.90;98.20;;;;;;4950233;29;20035;-70
2022/07/03 08:32:53;;;;;;;0.25;0.25;;;23.90;98.20;;;;;;4950080;29;20082;-70
2022/07/03 08:35:19;;;;;;;0.30;0.17;;;23.90;97.90;;;;;;4963242;28;20037;-71
2022/07/03 08:37:46;;;;;;;0.10;0.10;;;24.00;97.90;;;;;;4954405;28;20495;-71
2022/07/03 08:40:17;;;;;;;0.13;0.13;;;24.00;97.60;;;;;;4954614;28;20114;-71
2022/07/03 08:42:53;;;;;;;0.00;0.00;;;24.00;97.80;;;;;;4953053;29;20023;-71
2022/07/03 08:45:21;;;;;;;0.20;0.20;;;24.20;97.80;;;;;;4953799;28;20066;-70
2022/07/03 08:47:49;;;;;;;0.10;0.10;;;24.30;97.10;;;;;;4953147;29;20053;-70
2022/07/03 08:50:18;;;;;;;0.00;0.00;;;24.50;97.30;;;;;;4954595;28;20028;-72
2022/07/03 08:52:46;;;;;;;0.00;0.00;;;24.60;97.90;;;;;;4952856;29;20059;-70
2022/07/03 08:55:13;;;;;;;0.20;0.13;;;24.70;96.50;;;;;;4952840;29;20027;-73
2022/07/03 08:57:41;;;;;;;0.10;0.10;;;24.70;96.20;;;;;;4952808;29;20039;-75
2022/07/03 09:00:11;;;;;;;1.23;0.43;;;24.90;96.30;;;;;;4953145;29;20033;-73
2022/07/03 09:02:41;;;;;;;0.20;0.20;;;24.90;96.70;;;;;;4954169;28;20028;-74
2022/07/03 09:05:08;;;;;;;0.20;0.20;;;25.10;96.30;;;;;;4953999;28;20447;-73
2022/07/03 09:07:41;;;;;;;0.10;0.10;;;25.20;95.70;;;;;;4952817;28;20403;-75
2022/07/03 09:10:10;;;;;;;0.40;0.22;;;25.30;95.40;;;;;;4954049;28;20039;-75
2022/07/03 09:12:36;;;;;;;0.30;0.30;;;25.30;95.60;;;;;;4952363;28;20056;-72
2022/07/03 09:15:08;;;;;;;0.38;0.38;;;25.40;95.20;;;;;;4952799;29;20028;-76
2022/07/03 09:17:34;;;;;;;0.00;0.00;;;25.30;94.50;;;;;;4952552;29;20027;-72
2022/07/03 09:20:07;;;;;;;0.00;0.00;;;25.50;94.70;;;;;;4953791;29;20071;-74
2022/07/03 09:22:36;;;;;;;0.10;0.10;;;25.50;94.50;;;;;;4952360;28;20122;-76
2022/07/03 09:25:08;;;;;;;0.20;0.10;;;25.50;94.60;;;;;;4952732;29;20035;-72
2022/07/03 09:27:48;;;;;;;2.45;0.52;;;25.60;94.40;;;;;;4953263;28;20395;-72
2022/07/03 09:30:14;;;;;;;1.05;0.98;;;25.80;93.10;;;;;;4952383;29;20031;-72
2022/07/03 09:32:40;;;;;;;0.08;0.08;;;25.80;92.80;;;;;;4953063;29;20518;-72
2022/07/03 09:35:23;;;;;;;0.70;0.20;;;26.00;93.10;;;;;;4952620;29;20508;-72
2022/07/03 09:38:02;;;;;;;0.10;0.10;;;26.00;92.90;;;;;;4934255;29;20118;-73
2022/07/03 09:40:51;;;;;;;0.10;0.00;;;26.00;92.90;;;;;;4930798;29;20104;-72
2022/07/03 09:43:31;;;;;;;0.28;0.28;;;26.20;91.90;;;;;;4934056;29;20098;-73
2022/07/03 09:45:59;;;;;;;0.00;0.00;;;26.30;91.00;;;;;;4933193;29;20531;-72
2022/07/03 09:48:33;;;;;;;0.80;0.47;;;26.30;91.10;;;;;;4933174;29;20035;-71
2022/07/03 09:51:28;;;;;;;0.15;0.10;;;26.50;91.10;;;;;;4933872;29;20039;-73
2022/07/03 09:54:04;;;;;;;0.10;0.10;;;26.50;90.00;;;;;;4933809;29;20059;-74
2022/07/03 09:56:35;;;;;;;0.10;0.10;;;26.50;90.70;;;;;;4934642;29;20115;-75
2022/07/03 09:59:05;;;;;;;0.55;0.55;;;26.60;90.50;;;;;;4949028;23;20414;-72
2022/07/03 10:01:32;;;;;;;0.00;0.00;;;26.60;90.10;;;;;;4953980;28;20023;-74
2022/07/03 10:04:20;;;;;;;1.02;0.35;;;26.90;90.10;;;;;;4954967;28;20027;-68
2022/07/03 10:06:58;;;;;;;0.32;0.20;;;26.90;88.50;;;;;;4971122;28;20471;-67
2022/07/03 10:09:28;;;;;;;0.20;0.10;;;27.00;89.50;;;;;;4952391;28;20059;-76
2022/07/03 10:11:57;;;;;;;0.00;0.00;;;27.00;88.90;;;;;;4952835;28;20077;-72
2022/07/03 10:14:29;;;;;;;0.00;0.00;;;27.20;88.70;;;;;;4967051;28;20035;-70
2022/07/03 10:16:57;;;;;;;0.13;0.13;;;27.20;88.40;;;;;;4953119;28;20038;-69
2022/07/03 10:19:27;;;;;;;0.22;0.20;;;27.20;88.60;;;;;;4967666;28;20030;-70
2022/07/03 10:22:05;;;;;;;3.70;0.80;;;27.30;87.70;;;;;;4967549;28;20023;-68
2022/07/03 10:24:31;;;;;;;0.30;0.30;;;27.50;87.60;;;;;;4966897;28;20031;-69
2022/07/03 10:26:58;;;;;;;0.00;0.00;;;27.70;86.90;;;;;;4952807;28;20077;-70
2022/07/03 10:29:27;;;;;;;0.10;0.10;;;27.80;85.70;;;;;;4952606;28;20046;-68
2022/07/03 10:31:53;;;;;;;0.47;0.47;;;27.80;86.40;;;;;;4967555;28;20051;-68
2022/07/03 10:34:22;;;;;;;0.00;0.00;;;27.80;85.70;;;;;;4950991;28;20031;-69
2022/07/03 10:37:00;;;;;;;0.00;0.00;;;28.00;84.50;;;;;;4952733;28;20042;-70
2022/07/03 10:39:51;;;;;;;0.30;0.20;;;28.00;83.60;;;;;;4966395;28;20027;-70
2022/07/03 10:45:15;;;;;;;0.00;0.00;;;28.00;83.80;;;;;;4964774;28;20039;-70
2022/07/03 10:47:47;;;;;;;0.30;0.30;;;27.90;84.20;;;;;;4967631;28;20032;-69
2022/07/03 10:50:24;;;;;;;0.08;0.08;;;27.80;84.50;;;;;;4941318;28;20036;-69
2022/07/03 10:52:51;;;;;;;0.30;0.20;;;27.70;84.50;;;;;;4952364;28;20392;-69
2022/07/03 10:55:18;;;;;;;0.00;0.00;;;27.80;84.20;;;;;;4966985;28;20479;-68
2022/07/03 10:58:09;;;;;;;0.00;0.00;;;28.00;82.80;;;;;;4966947;28;20488;-70
2022/07/03 11:01:07;;;;;;;0.03;0.03;;;28.00;82.30;;;;;;4951341;29;20040;-67
2022/07/03 11:03:54;;;;;;;0.00;0.00;;;28.00;83.10;;;;;;4940146;29;20039;-66
2022/07/03 11:06:20;;;;;;;0.00;0.00;;;27.90;83.40;;;;;;4952674;28;20035;-67
2022/07/03 11:09:05;;;;;;;0.38;0.15;;;28.10;82.60;;;;;;4954874;28;20034;-69
2022/07/03 11:11:54;;;;;;;0.00;0.00;;;28.30;81.90;;;;;;4971091;28;20050;-69
2022/07/03 11:14:21;;;;;;;0.70;0.50;;;28.30;82.00;;;;;;4969306;28;20031;-70
2022/07/03 11:16:47;;;;;;;0.00;0.00;;;28.20;81.70;;;;;;4970920;28;20063;-70
2022/07/03 11:19:13;;;;;;;0.28;0.28;;;28.30;82.20;;;;;;4970735;28;20031;-70
2022/07/03 11:21:48;;;;;;;0.88;0.20;;;28.30;81.90;;;;;;4970616;28;20102;-69
2022/07/03 11:24:39;;;;;;;0.00;0.00;;;28.20;81.40;;;;;;4969771;28;20447;-70
2022/07/03 11:27:21;;;;;;;0.10;0.10;;;28.20;81.10;;;;;;4970140;28;20663;-70
2022/07/03 11:29:56;;;;;;;0.00;0.00;;;28.30;80.10;;;;;;4956010;28;20038;-69
2022/07/03 11:32:57;;;;;;;0.00;0.00;;;28.60;80.00;;;;;;4957186;28;20028;-70
2022/07/03 11:35:46;;;;;;;0.00;0.00;;;29.00;77.70;;;;;;4963996;28;20137;-71
2022/07/03 11:38:16;;;;;;;0.00;0.00;;;29.20;77.00;;;;;;4955244;28;20398;-71
2022/07/03 11:40:44;;;;;;;0.03;0.03;;;29.20;75.40;;;;;;4955260;28;20514;-70
2022/07/03 11:43:12;;;;;;;0.00;0.00;;;29.30;75.90;;;;;;4969416;28;20047;-70
2022/07/03 11:45:39;;;;;;;0.00;0.00;;;29.70;77.90;;;;;;4957396;28;20095;-69
2022/07/03 11:48:12;;;;;;;0.28;0.28;;;29.60;75.70;;;;;;4950730;28;20024;-69
2022/07/03 11:50:40;;;;;;;0.00;0.00;;;29.50;72.10;;;;;;4950937;29;20035;-70
2022/07/03 11:53:17;;;;;;;0.00;0.00;;;29.30;71.50;;;;;;4950577;28;20480;-69
2022/07/03 11:56:02;;;;;;;0.00;0.00;;;29.20;72.00;;;;;;4935916;29;20043;-68
2022/07/03 11:58:52;;;;;;;3.00;0.63;;;29.40;72.80;;;;;;4935668;29;20032;-70
2022/07/03 12:01:27;;;;;;;0.00;0.00;;;29.60;72.20;;;;;;4950336;28;20036;-71
2022/07/03 12:04:10;;;;;;;0.08;0.08;;;29.60;71.80;;;;;;4937585;29;20435;-69
2022/07/03 12:06:58;;;;;;;0.00;0.00;;;29.50;70.70;;;;;;4955228;28;20094;-70
2022/07/03 12:09:30;;;;;;;0.50;0.30;;;29.70;71.50;;;;;;4968432;28;20037;-73
2022/07/03 12:12:08;;;;;;;0.00;0.00;;;29.60;70.90;;;;;;4954703;28;20027;-71
2022/07/03 12:14:49;;;;;;;8.05;1.45;;;29.90;70.00;;;;;;4969722;28;20039;-71
2022/07/03 12:17:21;;;;;;;0.55;0.50;;;29.90;70.50;;;;;;4969193;28;20078;-71
2022/07/03 12:19:49;;;;;;;0.28;0.20;;;29.90;69.80;;;;;;4968800;28;20031;-72
2022/07/03 12:22:31;;;;;;;0.22;0.00;;;29.90;71.20;;;;;;4969245;28;20039;-71
2022/07/03 12:25:11;;;;;;;3.20;0.85;;;30.40;69.60;;;;;;4954905;28;20042;-72
2022/07/03 12:27:42;;;;;;;0.10;0.10;;;30.40;69.80;;;;;;4954330;28;20031;-72
2022/07/03 12:30:12;;;;;;;0.20;0.10;;;30.60;68.50;;;;;;4954466;28;20484;-73
2022/07/03 12:32:39;;;;;;;1.15;0.40;;;30.60;69.00;;;;;;4968915;28;20035;-72
2022/07/03 12:35:06;;;;;;;0.08;0.05;;;30.10;67.90;;;;;;4969253;28;20039;-70
2022/07/03 12:37:41;;;;;;;0.20;0.13;;;30.10;68.20;;;;;;4969162;28;20050;-70
2022/07/03 12:40:10;;;;;;;0.00;0.00;;;30.10;68.50;;;;;;4954715;28;20054;-67
2022/07/03 12:42:49;;;;;;;0.00;0.00;;;30.20;68.40;;;;;;4969137;28;20035;-69
2022/07/03 12:45:20;;;;;;;0.30;0.22;;;30.50;68.00;;;;;;4969445;28;20079;-70
2022/07/03 12:48:02;;;;;;;0.00;0.00;;;30.60;67.40;;;;;;4969047;28;20480;-69
2022/07/03 12:50:54;;;;;;;0.20;0.10;;;30.60;68.00;;;;;;4954078;28;20038;-71
2022/07/03 12:53:32;;;;;;;0.00;0.00;;;30.70;67.20;;;;;;4967906;28;20522;-70
2022/07/03 12:56:07;;;;;;;0.00;0.00;;;30.60;65.60;;;;;;4954120;28;20039;-72
2022/07/03 13:01:36;;;;;;;0.00;0.00;;;30.60;67.30;;;;;;4966360;28;20058;-71
2022/07/03 13:04:03;;;;;;;0.30;0.17;;;30.60;67.70;;;;;;4968079;28;20554;-70
2022/07/03 13:06:29;;;;;;;0.00;0.00;;;30.40;67.70;;;;;;4953958;28;20070;-70
2022/07/03 13:09:02;;;;;;;0.00;0.00;;;30.70;67.60;;;;;;4968664;28;20039;-70
2022/07/03 13:11:40;;;;;;;0.00;0.00;;;31.00;67.40;;;;;;4952676;28;20035;-71
2022/07/03 13:14:17;;;;;;;0.17;0.10;;;30.90;66.00;;;;;;4953528;28;20495;-71
2022/07/03 13:16:48;;;;;;;0.00;0.00;;;30.90;65.80;;;;;;4953714;28;20086;-71
2022/07/03 13:19:20;;;;;;;0.20;0.20;;;30.90;66.20;;;;;;4968636;28;20043;-71
2022/07/03 13:21:46;;;;;;;0.00;0.00;;;31.00;65.80;;;;;;4953721;28;20066;-70